createdAt,value
2018-12-04T00:00:23.571Z,12.50
2018-12-04T00:01:27.585Z,12.50
2018-12-04T00:02:31.014Z,12.40
2018-12-04T00:03:34.402Z,12.50
2018-12-04T00:04:37.799Z,12.40
2018-12-04T00:05:41.224Z,12.40
2018-12-04T00:06:44.619Z,12.40
2018-12-04T00:07:48.025Z,12.40
2018-12-04T00:08:51.411Z,12.40
2018-12-04T00:09:54.912Z,12.40
2018-12-04T00:10:58.327Z,12.40
2018-12-04T00:12:01.754Z,12.40
2018-12-04T00:13:05.167Z,12.40
2018-12-04T00:14:08.563Z,12.40
2018-12-04T00:15:11.952Z,12.30
2018-12-04T00:16:15.399Z,12.30
2018-12-04T00:17:19.214Z,12.30
2018-12-04T00:18:22.651Z,12.30
2018-12-04T00:19:26.174Z,12.20
2018-12-04T00:20:29.595Z,12.30
2018-12-04T00:21:33.005Z,12.20
2018-12-04T00:22:36.494Z,12.20
2018-12-04T00:23:39.904Z,12.20
2018-12-04T00:24:43.451Z,12.10
2018-12-04T00:25:46.859Z,12.10
2018-12-04T00:26:50.298Z,12.10
2018-12-04T00:27:53.763Z,12.10
2018-12-04T00:28:57.180Z,12.00
2018-12-04T00:30:00.594Z,12.00
2018-12-04T00:31:04.006Z,12.00
2018-12-04T00:32:07.430Z,12.00
2018-12-04T00:33:10.812Z,11.90
2018-12-04T00:34:14.230Z,11.90
2018-12-04T00:35:17.826Z,11.80
2018-12-04T00:36:21.206Z,11.80
2018-12-04T00:37:24.644Z,11.80
2018-12-04T00:38:28.135Z,11.90
2018-12-04T00:39:31.540Z,11.80
2018-12-04T00:40:34.949Z,11.80
2018-12-04T00:41:38.379Z,11.80
2018-12-04T00:42:41.824Z,11.80
2018-12-04T00:43:45.274Z,11.70
2018-12-04T00:44:48.652Z,11.80
2018-12-04T00:45:52.039Z,11.70
2018-12-04T00:46:55.435Z,11.60
2018-12-04T00:47:58.915Z,11.70
2018-12-04T00:49:02.294Z,11.60
2018-12-04T00:50:06.234Z,11.60
2018-12-04T00:51:09.674Z,11.60
2018-12-04T00:52:13.063Z,11.60
2018-12-04T00:53:16.511Z,11.60
2018-12-04T00:54:19.990Z,11.60
2018-12-04T00:55:23.400Z,11.60
2018-12-04T00:56:26.786Z,11.50
2018-12-04T00:57:30.188Z,11.50
2018-12-04T00:58:33.607Z,11.50
2018-12-04T00:59:37.022Z,11.50
2018-12-04T01:00:40.502Z,11.50
2018-12-04T01:01:43.939Z,11.50
2018-12-04T01:02:47.334Z,11.50
2018-12-04T01:03:50.747Z,11.50
2018-12-04T01:04:54.135Z,11.50
2018-12-04T01:05:57.547Z,11.50
2018-12-04T01:07:00.972Z,11.50
2018-12-04T01:08:04.392Z,11.40
2018-12-04T01:09:10.826Z,11.40
2018-12-04T01:10:14.222Z,11.40
2018-12-04T01:11:17.615Z,11.40
2018-12-04T01:12:21.048Z,11.40
2018-12-04T01:13:24.471Z,11.40
2018-12-04T01:14:27.987Z,11.40
2018-12-04T01:15:31.394Z,11.40
2018-12-04T01:16:34.786Z,11.40
2018-12-04T01:17:38.180Z,11.50
2018-12-04T01:18:41.567Z,11.40
2018-12-04T01:19:44.999Z,11.40
2018-12-04T01:20:48.424Z,11.40
2018-12-04T01:21:51.817Z,11.40
2018-12-04T01:22:55.204Z,11.40
2018-12-04T01:23:58.581Z,11.40
2018-12-04T01:25:02.018Z,11.30
2018-12-04T01:26:05.517Z,11.40
2018-12-04T01:27:08.903Z,11.30
2018-12-04T01:28:12.319Z,11.30
2018-12-04T01:29:15.750Z,11.30
2018-12-04T01:30:19.183Z,11.30
2018-12-04T01:31:22.595Z,11.40
2018-12-04T01:32:26.003Z,11.30
2018-12-04T01:33:29.426Z,11.40
2018-12-04T01:34:32.802Z,11.30
2018-12-04T01:35:36.223Z,11.30
2018-12-04T01:36:39.627Z,11.30
2018-12-04T01:37:43.027Z,11.30
2018-12-04T01:38:46.433Z,11.30
2018-12-04T01:39:49.803Z,11.30
2018-12-04T01:40:53.290Z,11.40
2018-12-04T01:41:56.751Z,11.30
2018-12-04T01:43:00.150Z,11.20
2018-12-04T01:44:03.550Z,11.20
2018-12-04T01:45:07.283Z,11.20
2018-12-04T01:46:10.707Z,11.10
2018-12-04T01:47:14.102Z,11.10
2018-12-04T01:48:17.500Z,11.10
2018-12-04T01:49:20.898Z,11.10
2018-12-04T01:50:24.290Z,11.10
2018-12-04T01:51:27.800Z,11.10
2018-12-04T01:52:31.218Z,11.10
2018-12-04T01:53:34.605Z,11.10
2018-12-04T01:54:38.103Z,11.10
2018-12-04T01:55:41.522Z,11.10
2018-12-04T01:56:44.938Z,11.10
2018-12-04T01:57:48.416Z,11.10
2018-12-04T01:58:51.802Z,11.10
2018-12-04T01:59:55.198Z,11.00
2018-12-04T02:00:58.603Z,11.00
2018-12-04T02:02:02.033Z,11.00
2018-12-04T02:03:05.417Z,11.00
2018-12-04T02:04:08.807Z,11.00
2018-12-04T02:05:12.199Z,11.00
2018-12-04T02:06:15.590Z,11.10
2018-12-04T02:07:18.990Z,11.10
2018-12-04T02:08:22.387Z,11.10
2018-12-04T02:09:25.782Z,11.10
2018-12-04T02:10:29.187Z,11.10
2018-12-04T02:11:32.578Z,11.00
2018-12-04T02:12:36.068Z,11.00
2018-12-04T02:13:39.474Z,11.10
2018-12-04T02:14:42.875Z,11.10
2018-12-04T02:15:46.266Z,11.10
2018-12-04T02:16:49.656Z,11.10
2018-12-04T02:17:53.170Z,11.10
2018-12-04T02:18:57.088Z,11.10
2018-12-04T02:20:00.673Z,11.10
2018-12-04T02:21:05.289Z,11.10
2018-12-04T02:22:08.854Z,11.10
2018-12-04T02:23:12.266Z,11.10
2018-12-04T02:24:15.674Z,11.10
2018-12-04T02:25:19.076Z,11.20
2018-12-04T02:26:22.467Z,11.10
2018-12-04T02:27:25.858Z,11.10
2018-12-04T02:28:34.506Z,11.10
2018-12-04T02:29:37.943Z,11.10
2018-12-04T02:30:41.352Z,11.00
2018-12-04T02:31:44.843Z,11.00
2018-12-04T02:32:48.543Z,11.00
2018-12-04T02:33:51.947Z,11.00
2018-12-04T02:34:55.340Z,10.90
2018-12-04T02:35:58.717Z,10.90
2018-12-04T02:37:02.106Z,10.90
2018-12-04T02:38:05.496Z,10.90
2018-12-04T02:39:09.075Z,10.90
2018-12-04T02:40:12.541Z,10.90
2018-12-04T02:41:15.928Z,10.90
2018-12-04T02:42:23.644Z,10.90
2018-12-04T02:43:27.159Z,10.90
2018-12-04T02:44:30.572Z,10.90
2018-12-04T02:45:33.971Z,10.90
2018-12-04T02:46:37.527Z,10.90
2018-12-04T02:47:40.943Z,10.90
2018-12-04T02:48:44.343Z,11.00
2018-12-04T02:49:47.786Z,11.00
2018-12-04T02:50:51.210Z,10.90
2018-12-04T02:51:54.603Z,11.00
2018-12-04T02:52:58.027Z,11.00
2018-12-04T02:54:01.403Z,11.00
2018-12-04T02:55:04.818Z,10.90
2018-12-04T02:56:08.223Z,11.00
2018-12-04T02:57:11.643Z,11.00
2018-12-04T02:58:15.031Z,10.90
2018-12-04T02:59:18.448Z,10.90
2018-12-04T03:00:21.843Z,10.90
2018-12-04T03:01:25.238Z,11.00
2018-12-04T03:02:28.646Z,11.00
2018-12-04T03:03:32.048Z,11.00
2018-12-04T03:04:35.429Z,10.90
2018-12-04T03:05:38.874Z,10.90
2018-12-04T03:06:42.260Z,11.00
2018-12-04T03:07:45.649Z,10.90
2018-12-04T03:08:49.047Z,10.90
2018-12-04T03:09:52.463Z,10.90
2018-12-04T03:10:55.878Z,10.80
2018-12-04T03:11:59.443Z,10.80
2018-12-04T03:13:02.848Z,10.80
2018-12-04T03:14:06.369Z,10.80
2018-12-04T03:15:09.776Z,10.80
2018-12-04T03:16:13.188Z,10.80
2018-12-04T03:17:16.595Z,10.80
2018-12-04T03:18:20.103Z,10.80
2018-12-04T03:19:23.562Z,10.80
2018-12-04T03:20:26.959Z,10.70
2018-12-04T03:21:30.435Z,10.80
2018-12-04T03:22:33.826Z,10.80
2018-12-04T03:23:37.279Z,10.70
2018-12-04T03:24:40.767Z,10.70
2018-12-04T03:25:44.151Z,10.70
2018-12-04T03:26:47.571Z,10.80
2018-12-04T03:27:50.960Z,10.70
2018-12-04T03:28:54.425Z,10.80
2018-12-04T03:29:57.871Z,10.80
2018-12-04T03:31:01.281Z,10.80
2018-12-04T03:32:04.699Z,10.80
2018-12-04T03:33:08.100Z,10.80
2018-12-04T03:34:11.599Z,10.80
2018-12-04T03:35:14.986Z,10.80
2018-12-04T03:36:18.470Z,10.80
2018-12-04T03:37:21.894Z,10.80
2018-12-04T03:38:25.311Z,10.80
2018-12-04T03:39:28.715Z,10.80
2018-12-04T03:40:32.190Z,10.80
2018-12-04T03:41:35.596Z,10.80
2018-12-04T03:42:38.999Z,10.80
2018-12-04T03:43:42.373Z,10.80
2018-12-04T03:44:45.759Z,10.80
2018-12-04T03:45:49.154Z,10.80
2018-12-04T03:46:52.586Z,10.70
2018-12-04T03:47:56.000Z,10.70
2018-12-04T03:48:59.399Z,10.70
2018-12-04T03:50:02.810Z,10.70
2018-12-04T03:51:06.185Z,10.70
2018-12-04T03:52:09.599Z,10.80
2018-12-04T03:53:13.072Z,10.80
2018-12-04T03:54:16.456Z,10.80
2018-12-04T03:55:19.904Z,10.80
2018-12-04T03:56:23.381Z,10.70
2018-12-04T03:57:26.767Z,10.70
2018-12-04T03:58:30.191Z,10.70
2018-12-04T03:59:33.574Z,10.70
2018-12-04T04:00:36.941Z,10.70
2018-12-04T04:01:40.327Z,10.80
2018-12-04T04:02:43.790Z,10.70
2018-12-04T04:03:47.223Z,10.70
2018-12-04T04:04:50.625Z,10.70
2018-12-04T04:05:54.015Z,10.70
2018-12-04T04:06:57.402Z,10.70
2018-12-04T04:08:00.858Z,10.70
2018-12-04T04:09:06.299Z,10.70
2018-12-04T04:10:09.678Z,10.70
2018-12-04T04:11:13.175Z,10.70
2018-12-04T04:12:16.559Z,10.60
2018-12-04T04:13:19.954Z,10.60
2018-12-04T04:14:23.392Z,10.60
2018-12-04T04:15:26.765Z,10.60
2018-12-04T04:16:30.191Z,10.60
2018-12-04T04:17:33.592Z,10.60
2018-12-04T04:18:37.001Z,10.60
2018-12-04T04:19:40.408Z,10.60
2018-12-04T04:20:43.817Z,10.60
2018-12-04T04:21:47.195Z,10.60
2018-12-04T04:22:50.642Z,10.70
2018-12-04T04:23:54.085Z,10.60
2018-12-04T04:24:57.540Z,10.70
2018-12-04T04:26:00.922Z,10.60
2018-12-04T04:27:04.319Z,10.70
2018-12-04T04:28:07.702Z,10.70
2018-12-04T04:29:11.113Z,10.70
2018-12-04T04:30:14.526Z,10.70
2018-12-04T04:31:17.940Z,10.70
2018-12-04T04:32:21.427Z,10.70
2018-12-04T04:33:24.851Z,10.70
2018-12-04T04:34:28.235Z,10.70
2018-12-04T04:35:31.686Z,10.70
2018-12-04T04:36:35.070Z,10.70
2018-12-04T04:37:38.480Z,10.70
2018-12-04T04:38:41.874Z,10.70
2018-12-04T04:39:45.272Z,10.70
2018-12-04T04:40:48.676Z,10.70
2018-12-04T04:41:52.147Z,10.70
2018-12-04T04:42:55.522Z,10.70
2018-12-04T04:43:58.899Z,10.60
2018-12-04T04:45:02.316Z,10.60
2018-12-04T04:46:05.740Z,10.60
2018-12-04T04:47:09.105Z,10.70
2018-12-04T04:48:12.507Z,10.70
2018-12-04T04:49:15.902Z,10.60
2018-12-04T04:50:19.284Z,10.60
2018-12-04T04:51:22.763Z,10.60
2018-12-04T04:52:26.231Z,10.70
2018-12-04T04:53:29.898Z,10.60
2018-12-04T04:54:33.331Z,10.70
2018-12-04T04:55:36.708Z,10.60
2018-12-04T04:56:40.115Z,10.60
2018-12-04T04:57:43.516Z,10.60
2018-12-04T04:58:46.912Z,10.60
2018-12-04T04:59:50.363Z,10.60
2018-12-04T05:00:53.831Z,10.60
2018-12-04T05:01:57.248Z,10.60
2018-12-04T05:03:00.667Z,10.60
2018-12-04T05:04:04.091Z,10.60
2018-12-04T05:05:07.505Z,10.60
2018-12-04T05:06:10.898Z,10.50
2018-12-04T05:07:14.412Z,10.60
2018-12-04T05:08:17.904Z,10.50
2018-12-04T05:09:21.282Z,10.60
2018-12-04T05:10:24.690Z,10.60
2018-12-04T05:11:28.079Z,10.60
2018-12-04T05:12:31.523Z,10.60
2018-12-04T05:13:35.016Z,10.60
2018-12-04T05:14:38.434Z,10.60
2018-12-04T05:15:41.824Z,10.60
2018-12-04T05:16:45.214Z,10.60
2018-12-04T05:17:48.627Z,10.70
2018-12-04T05:18:52.047Z,10.70
2018-12-04T05:19:55.591Z,10.70
2018-12-04T05:20:58.995Z,10.70
2018-12-04T05:22:02.402Z,10.70
2018-12-04T05:23:05.821Z,10.60
2018-12-04T05:24:09.699Z,10.70
2018-12-04T05:25:13.106Z,10.60
2018-12-04T05:26:16.603Z,10.60
2018-12-04T05:27:20.007Z,10.60
2018-12-04T05:28:23.422Z,10.60
2018-12-04T05:29:26.806Z,10.60
2018-12-04T05:30:30.244Z,10.60
2018-12-04T05:31:33.647Z,10.60
2018-12-04T05:32:37.189Z,10.60
2018-12-04T05:33:40.628Z,10.60
2018-12-04T05:34:44.036Z,10.60
2018-12-04T05:35:47.470Z,10.60
2018-12-04T05:36:50.864Z,10.60
2018-12-04T05:37:54.291Z,10.60
2018-12-04T05:38:57.919Z,10.60
2018-12-04T05:40:01.319Z,10.50
2018-12-04T05:41:09.360Z,10.50
2018-12-04T05:42:12.783Z,10.60
2018-12-04T05:43:16.193Z,10.50
2018-12-04T05:44:19.582Z,10.50
2018-12-04T05:45:22.971Z,10.50
2018-12-04T05:46:26.431Z,10.50
2018-12-04T05:47:29.815Z,10.50
2018-12-04T05:48:33.207Z,10.50
2018-12-04T05:49:36.591Z,10.50
2018-12-04T05:50:39.970Z,10.50
2018-12-04T05:51:43.370Z,10.50
2018-12-04T05:52:56.923Z,10.50
2018-12-04T05:54:00.402Z,10.50
2018-12-04T05:55:03.825Z,10.50
2018-12-04T05:56:10.423Z,10.50
2018-12-04T05:57:13.880Z,10.50
2018-12-04T05:58:17.273Z,10.50
2018-12-04T05:59:20.659Z,10.50
2018-12-04T06:00:24.118Z,10.50
2018-12-04T06:01:27.498Z,10.50
2018-12-04T06:02:30.903Z,10.40
2018-12-04T06:03:34.366Z,10.40
2018-12-04T06:04:38.963Z,10.40
2018-12-04T06:05:42.355Z,10.50
2018-12-04T06:06:45.784Z,10.50
2018-12-04T06:07:49.179Z,10.50
2018-12-04T06:08:52.562Z,10.40
2018-12-04T06:09:56.074Z,10.40
2018-12-04T06:10:59.468Z,10.30
2018-12-04T06:12:02.884Z,10.30
2018-12-04T06:13:06.279Z,10.30
2018-12-04T06:14:09.789Z,10.30
2018-12-04T06:15:13.182Z,10.30
2018-12-04T06:16:16.712Z,10.30
2018-12-04T06:17:20.137Z,10.30
2018-12-04T06:18:23.522Z,10.30
2018-12-04T06:19:26.926Z,10.30
2018-12-04T06:20:30.401Z,10.30
2018-12-04T06:21:33.852Z,10.30
2018-12-04T06:22:37.446Z,10.20
2018-12-04T06:23:40.818Z,10.30
2018-12-04T06:24:44.739Z,10.30
2018-12-04T06:25:48.128Z,10.30
2018-12-04T06:26:52.114Z,10.20
2018-12-04T06:27:55.523Z,10.30
2018-12-04T06:28:58.897Z,10.20
2018-12-04T06:30:02.270Z,10.30
2018-12-04T06:31:05.698Z,10.30
2018-12-04T06:32:09.077Z,10.30
2018-12-04T06:33:12.607Z,10.20
2018-12-04T06:34:16.021Z,10.10
2018-12-04T06:35:19.457Z,10.10
2018-12-04T06:36:23.219Z,10.10
2018-12-04T06:37:26.697Z,10.00
2018-12-04T06:38:30.102Z,10.00
2018-12-04T06:39:33.519Z,10.00
2018-12-04T06:40:36.997Z,9.90
2018-12-04T06:41:40.379Z,9.90
2018-12-04T06:42:43.767Z,9.90
2018-12-04T06:43:47.183Z,9.90
2018-12-04T06:44:50.566Z,9.90
2018-12-04T06:45:53.971Z,9.90
2018-12-04T06:46:57.354Z,9.90
2018-12-04T06:48:00.751Z,9.90
2018-12-04T06:49:04.168Z,9.90
2018-12-04T06:50:09.948Z,9.90
2018-12-04T06:51:13.342Z,9.90
2018-12-04T06:52:16.724Z,9.90
2018-12-04T06:53:20.139Z,9.90
2018-12-04T06:54:24.022Z,9.90
2018-12-04T06:55:27.414Z,9.90
2018-12-04T06:56:30.934Z,9.90
2018-12-04T06:57:34.332Z,9.90
2018-12-04T06:58:37.710Z,9.90
2018-12-04T06:59:41.180Z,9.90
2018-12-04T07:00:44.650Z,9.90
2018-12-04T07:01:48.051Z,9.90
2018-12-04T07:02:51.454Z,9.90
2018-12-04T07:03:54.888Z,9.90
2018-12-04T07:04:58.409Z,9.90
2018-12-04T07:06:01.792Z,9.80
2018-12-04T07:07:05.200Z,9.80
2018-12-04T07:08:08.589Z,9.80
2018-12-04T07:09:12.059Z,9.90
2018-12-04T07:10:16.180Z,9.80
2018-12-04T07:11:20.670Z,9.80
2018-12-04T07:12:24.122Z,9.80
2018-12-04T07:13:27.570Z,9.80
2018-12-04T07:14:30.988Z,9.80
2018-12-04T07:15:35.166Z,9.80
2018-12-04T07:16:38.561Z,9.80
2018-12-04T07:17:42.019Z,9.80
2018-12-04T07:18:45.449Z,9.90
2018-12-04T07:19:48.967Z,9.90
2018-12-04T07:20:52.535Z,9.90
2018-12-04T07:21:56.022Z,9.90
2018-12-04T07:22:59.890Z,9.90
2018-12-04T07:24:03.456Z,9.90
2018-12-04T07:25:07.351Z,9.90
2018-12-04T07:26:10.909Z,9.90
2018-12-04T07:27:14.318Z,9.90
2018-12-04T07:28:17.713Z,9.90
2018-12-04T07:29:21.131Z,9.90
2018-12-04T07:30:24.582Z,10.00
2018-12-04T07:31:32.508Z,10.00
2018-12-04T07:32:38.749Z,10.00
2018-12-04T07:33:41.543Z,10.00
2018-12-04T07:34:44.940Z,10.00
2018-12-04T07:35:48.678Z,10.00
2018-12-04T07:36:52.458Z,10.00
2018-12-04T07:37:56.405Z,9.90
2018-12-04T07:38:59.804Z,9.90
2018-12-04T07:40:03.218Z,9.90
2018-12-04T07:41:06.685Z,9.90
2018-12-04T07:42:10.132Z,9.90
2018-12-04T07:43:13.596Z,9.90
2018-12-04T07:44:17.050Z,9.90
2018-12-04T07:45:20.497Z,9.90
2018-12-04T07:46:24.124Z,10.00
2018-12-04T07:47:27.572Z,10.00
2018-12-04T07:48:31.211Z,10.00
2018-12-04T07:49:34.635Z,10.00
2018-12-04T07:50:38.229Z,10.00
2018-12-04T07:51:41.690Z,10.00
2018-12-04T07:52:45.174Z,10.00
2018-12-04T07:53:48.573Z,10.00
2018-12-04T07:54:51.988Z,10.00
2018-12-04T07:55:55.530Z,10.00
2018-12-04T07:56:59.562Z,10.10
2018-12-04T07:58:03.257Z,10.10
2018-12-04T07:59:06.705Z,10.10
2018-12-04T08:00:11.643Z,10.10
2018-12-04T08:01:16.455Z,10.10
2018-12-04T08:02:22.524Z,10.10
2018-12-04T08:03:28.524Z,10.10
2018-12-04T08:04:34.844Z,10.10
2018-12-04T08:05:39.020Z,10.10
2018-12-04T08:06:44.827Z,10.10
2018-12-04T08:07:49.481Z,10.10
2018-12-04T08:08:55.280Z,10.10
2018-12-04T08:10:02.338Z,10.10
2018-12-04T08:11:06.440Z,10.10
2018-12-04T08:12:11.159Z,10.10
2018-12-04T08:13:15.250Z,10.10
2018-12-04T08:14:20.706Z,10.00
2018-12-04T08:15:25.586Z,10.00
2018-12-04T08:16:31.585Z,10.00
2018-12-04T08:17:35.098Z,10.00
2018-12-04T08:18:38.491Z,10.00
2018-12-04T08:19:41.970Z,10.00
2018-12-04T08:20:45.369Z,10.00
2018-12-04T08:21:48.774Z,10.10
2018-12-04T08:22:52.155Z,10.10
2018-12-04T08:23:55.537Z,10.10
2018-12-04T08:24:58.919Z,10.10
2018-12-04T08:26:02.364Z,10.10
2018-12-04T08:27:05.779Z,10.10
2018-12-04T08:28:09.162Z,10.20
2018-12-04T08:29:12.569Z,10.20
2018-12-04T08:30:16.113Z,10.20
2018-12-04T08:31:19.511Z,10.30
2018-12-04T08:32:22.952Z,10.30
2018-12-04T08:33:26.342Z,10.30
2018-12-04T08:34:29.727Z,10.30
2018-12-04T08:35:33.123Z,10.30
2018-12-04T08:36:36.574Z,10.30
2018-12-04T08:37:40.016Z,10.30
2018-12-04T08:38:43.586Z,10.30
2018-12-04T08:39:46.979Z,10.20
2018-12-04T08:40:50.402Z,10.20
2018-12-04T08:41:53.802Z,10.20
2018-12-04T08:42:57.227Z,10.20
2018-12-04T08:44:00.639Z,10.20
2018-12-04T08:45:04.417Z,10.10
2018-12-04T08:46:07.834Z,10.20
2018-12-04T08:47:11.322Z,10.20
2018-12-04T08:48:14.970Z,10.20
2018-12-04T08:49:18.359Z,10.20
2018-12-04T08:50:21.775Z,10.20
2018-12-04T08:51:25.261Z,10.20
2018-12-04T08:52:28.743Z,10.20
2018-12-04T08:53:32.140Z,10.30
2018-12-04T08:54:35.546Z,10.30
2018-12-04T08:55:38.959Z,10.30
2018-12-04T08:56:42.366Z,10.30
2018-12-04T08:57:45.851Z,10.40
2018-12-04T08:58:49.262Z,10.40
2018-12-04T08:59:52.675Z,10.40
2018-12-04T09:00:56.056Z,10.30
2018-12-04T09:01:59.470Z,10.30
2018-12-04T09:03:02.875Z,10.30
2018-12-04T09:04:06.286Z,10.30
2018-12-04T09:05:09.712Z,10.30
2018-12-04T09:06:13.182Z,10.30
2018-12-04T09:07:16.626Z,10.30
2018-12-04T09:08:20.047Z,10.30
2018-12-04T09:09:23.453Z,10.30
2018-12-04T09:10:26.851Z,10.30
2018-12-04T09:11:30.295Z,10.30
2018-12-04T09:12:33.731Z,10.40
2018-12-04T09:13:37.282Z,10.40
2018-12-04T09:14:40.724Z,10.40
2018-12-04T09:15:44.101Z,10.40
2018-12-04T09:16:47.555Z,10.40
2018-12-04T09:17:50.979Z,10.40
2018-12-04T09:18:54.407Z,10.40
2018-12-04T09:19:57.926Z,10.50
2018-12-04T09:21:01.456Z,10.50
2018-12-04T09:22:05.016Z,10.40
2018-12-04T09:23:08.742Z,10.40
2018-12-04T09:24:12.268Z,10.40
2018-12-04T09:25:15.842Z,10.30
2018-12-04T09:26:19.253Z,10.30
2018-12-04T09:27:22.805Z,10.30
2018-12-04T09:28:26.259Z,10.40
2018-12-04T09:29:29.846Z,10.30
2018-12-04T09:30:33.303Z,10.30
2018-12-04T09:31:36.699Z,10.30
2018-12-04T09:32:40.133Z,10.30
2018-12-04T09:33:43.595Z,10.30
2018-12-04T09:34:47.066Z,10.20
2018-12-04T09:35:50.505Z,10.20
2018-12-04T09:36:53.902Z,10.20
2018-12-04T09:37:57.314Z,10.20
2018-12-04T09:39:00.727Z,10.20
2018-12-04T09:40:04.972Z,10.20
2018-12-04T09:41:08.371Z,10.10
2018-12-04T09:42:11.835Z,10.10
2018-12-04T09:43:15.255Z,10.10
2018-12-04T09:44:18.673Z,10.00
2018-12-04T09:45:22.159Z,10.00
2018-12-04T09:46:25.554Z,10.00
2018-12-04T09:47:28.961Z,10.00
2018-12-04T09:48:32.359Z,9.90
2018-12-04T09:49:35.783Z,9.90
2018-12-04T09:50:39.202Z,9.90
2018-12-04T09:51:42.595Z,9.90
2018-12-04T09:52:46.018Z,9.90
2018-12-04T09:53:51.993Z,9.80
2018-12-04T09:54:54.827Z,9.80
2018-12-04T09:55:58.215Z,9.80
2018-12-04T09:57:01.630Z,9.80
2018-12-04T09:58:05.022Z,9.80
2018-12-04T09:59:08.450Z,9.80
2018-12-04T10:00:11.905Z,9.80
2018-12-04T10:01:15.307Z,9.90
2018-12-04T10:02:18.696Z,9.90
2018-12-04T10:03:22.143Z,9.90
2018-12-04T10:04:25.516Z,9.90
2018-12-04T10:05:28.910Z,9.80
2018-12-04T10:06:32.315Z,9.90
2018-12-04T10:07:35.688Z,9.90
2018-12-04T10:08:39.099Z,9.90
2018-12-04T10:09:42.538Z,9.90
2018-12-04T10:10:45.923Z,9.90
2018-12-04T10:11:49.299Z,9.90
2018-12-04T10:12:52.732Z,9.90
2018-12-04T10:13:56.195Z,9.90
2018-12-04T10:14:59.589Z,9.90
2018-12-04T10:16:02.985Z,10.00
2018-12-04T10:17:06.382Z,10.00
2018-12-04T10:18:09.791Z,10.00
2018-12-04T10:19:13.209Z,10.00
2018-12-04T10:20:16.587Z,10.00
2018-12-04T10:21:19.999Z,10.00
2018-12-04T10:22:23.403Z,10.00
2018-12-04T10:23:26.811Z,10.10
2018-12-04T10:24:30.193Z,10.10
2018-12-04T10:25:33.571Z,10.10
2018-12-04T10:26:36.961Z,10.10
2018-12-04T10:27:40.335Z,10.10
2018-12-04T10:28:43.742Z,10.10
2018-12-04T10:29:47.147Z,10.20
2018-12-04T10:30:56.037Z,10.20
2018-12-04T10:31:59.434Z,10.20
2018-12-04T10:33:02.831Z,10.20
2018-12-04T10:34:06.221Z,10.20
2018-12-04T10:35:09.642Z,10.20
2018-12-04T10:36:13.132Z,10.20
2018-12-04T10:37:16.537Z,10.20
2018-12-04T10:38:19.943Z,10.20
2018-12-04T10:39:23.343Z,10.20
2018-12-04T10:40:26.748Z,10.20
2018-12-04T10:41:30.191Z,10.10
2018-12-04T10:42:33.587Z,10.10
2018-12-04T10:43:36.984Z,10.10
2018-12-04T10:44:40.416Z,10.00
2018-12-04T10:45:43.815Z,10.00
2018-12-04T10:46:47.206Z,10.00
2018-12-04T10:47:50.611Z,10.00
2018-12-04T10:48:54.010Z,10.00
2018-12-04T10:49:57.383Z,10.00
2018-12-04T10:51:00.777Z,10.10
2018-12-04T10:52:04.165Z,10.10
2018-12-04T10:53:07.558Z,10.10
2018-12-04T10:54:10.991Z,10.10
2018-12-04T10:55:14.394Z,10.10
2018-12-04T10:56:17.795Z,10.10
2018-12-04T10:57:21.174Z,10.10
2018-12-04T10:58:24.558Z,10.10
2018-12-04T10:59:28.025Z,10.10
2018-12-04T11:00:38.535Z,10.10
2018-12-04T11:01:47.330Z,10.10
2018-12-04T11:02:50.724Z,10.00
2018-12-04T11:03:54.228Z,10.00
2018-12-04T11:04:57.688Z,10.00
2018-12-04T11:06:01.073Z,10.00
2018-12-04T11:07:04.544Z,10.00
2018-12-04T11:08:07.986Z,10.10
2018-12-04T11:09:11.374Z,10.00
2018-12-04T11:10:14.784Z,10.00
2018-12-04T11:11:18.202Z,10.00
2018-12-04T11:12:21.592Z,10.10
2018-12-04T11:13:25.000Z,10.00
2018-12-04T11:14:28.418Z,10.00
2018-12-04T11:15:31.846Z,10.00
2018-12-04T11:16:35.227Z,10.00
2018-12-04T11:17:38.806Z,10.00
2018-12-04T11:18:42.195Z,10.00
2018-12-04T11:19:45.615Z,10.00
2018-12-04T11:20:48.986Z,10.00
2018-12-04T11:21:52.377Z,10.00
2018-12-04T11:22:55.781Z,10.00
2018-12-04T11:23:59.227Z,10.00
2018-12-04T11:25:02.758Z,10.00
2018-12-04T11:26:06.137Z,10.00
2018-12-04T11:27:09.566Z,10.00
2018-12-04T11:28:12.963Z,10.00
2018-12-04T11:29:16.355Z,10.00
2018-12-04T11:30:19.774Z,10.10
2018-12-04T11:31:23.151Z,10.10
2018-12-04T11:32:26.546Z,10.10
2018-12-04T11:33:29.934Z,10.10
2018-12-04T11:34:33.457Z,10.10
2018-12-04T11:35:36.862Z,10.10
2018-12-04T11:36:40.311Z,10.10
2018-12-04T11:37:43.808Z,10.10
2018-12-04T11:38:47.207Z,10.20
2018-12-04T11:39:50.600Z,10.20
2018-12-04T11:40:53.994Z,10.20
2018-12-04T11:41:57.455Z,10.20
2018-12-04T11:43:00.878Z,10.20
2018-12-04T11:44:04.263Z,10.20
2018-12-04T11:45:07.648Z,10.20
2018-12-04T11:46:11.038Z,10.20
2018-12-04T11:47:14.447Z,10.20
2018-12-04T11:48:17.847Z,10.20
2018-12-04T11:49:21.275Z,10.20
2018-12-04T11:50:24.682Z,10.20
2018-12-04T11:51:28.079Z,10.30
2018-12-04T11:52:31.459Z,10.30
2018-12-04T11:53:34.847Z,10.30
2018-12-04T11:54:38.278Z,10.30
2018-12-04T11:55:41.702Z,10.30
2018-12-04T11:56:45.106Z,10.30
2018-12-04T11:57:48.498Z,10.30
2018-12-04T11:58:52.122Z,10.30
2018-12-04T11:59:55.494Z,10.30
2018-12-04T12:00:58.923Z,10.30
2018-12-04T12:02:02.325Z,10.40
2018-12-04T12:03:05.711Z,10.30
2018-12-04T12:04:09.123Z,10.30
2018-12-04T12:05:12.519Z,10.30
2018-12-04T12:06:15.958Z,10.30
2018-12-04T12:07:20.608Z,10.30
2018-12-04T12:08:24.247Z,10.30
2018-12-04T12:09:27.639Z,10.30
2018-12-04T12:10:31.027Z,10.30
2018-12-04T12:11:34.420Z,10.30
2018-12-04T12:12:37.808Z,10.30
2018-12-04T12:13:41.192Z,10.30
2018-12-04T12:14:44.567Z,10.30
2018-12-04T12:15:47.979Z,10.20
2018-12-04T12:16:51.395Z,10.20
2018-12-04T12:17:54.883Z,10.20
2018-12-04T12:18:58.270Z,10.20
2018-12-04T12:20:01.646Z,10.20
2018-12-04T12:21:05.110Z,10.20
2018-12-04T12:22:08.530Z,10.20
2018-12-04T12:23:11.992Z,10.30
2018-12-04T12:24:15.383Z,10.30
2018-12-04T12:25:18.771Z,10.30
2018-12-04T12:26:22.155Z,10.30
2018-12-04T12:27:25.666Z,10.30
2018-12-04T12:28:29.055Z,10.30
2018-12-04T12:29:32.442Z,10.30
2018-12-04T12:30:35.837Z,10.30
2018-12-04T12:31:39.218Z,10.30
2018-12-04T12:32:42.630Z,10.30
2018-12-04T12:33:46.010Z,10.30
2018-12-04T12:34:49.394Z,10.30
2018-12-04T12:35:52.786Z,10.30
2018-12-04T12:36:56.178Z,10.30
2018-12-04T12:37:59.629Z,10.40
2018-12-04T12:39:03.631Z,10.40
2018-12-04T12:40:08.716Z,10.40
2018-12-04T12:41:12.109Z,10.30
2018-12-04T12:42:15.518Z,10.40
2018-12-04T12:43:18.939Z,10.40
2018-12-04T12:44:22.323Z,10.40
2018-12-04T12:45:25.709Z,10.40
2018-12-04T12:46:29.236Z,10.40
2018-12-04T12:47:32.651Z,10.50
2018-12-04T12:48:36.055Z,10.50
2018-12-04T12:49:39.472Z,10.50
2018-12-04T12:50:42.854Z,10.50
2018-12-04T12:51:46.235Z,10.50
2018-12-04T12:52:49.759Z,10.50
2018-12-04T12:53:53.150Z,10.60
2018-12-04T12:54:56.554Z,10.50
2018-12-04T12:55:59.946Z,10.50
2018-12-04T12:57:03.353Z,10.50
2018-12-04T12:58:06.803Z,10.50
2018-12-04T12:59:10.219Z,10.50
2018-12-04T13:00:13.597Z,10.50
2018-12-04T13:01:16.987Z,10.50
2018-12-04T13:02:20.373Z,10.50
2018-12-04T13:03:23.770Z,10.50
2018-12-04T13:04:27.163Z,10.50
2018-12-04T13:05:30.695Z,10.50
2018-12-04T13:06:34.085Z,10.50
2018-12-04T13:07:37.484Z,10.50
2018-12-04T13:08:40.955Z,10.50
2018-12-04T13:09:44.357Z,10.50
2018-12-04T13:10:47.735Z,10.50
2018-12-04T13:11:51.214Z,10.40
2018-12-04T13:12:54.605Z,10.50
2018-12-04T13:13:58.075Z,10.40
2018-12-04T13:15:01.508Z,10.40
2018-12-04T13:16:04.907Z,10.30
2018-12-04T13:17:08.330Z,10.30
2018-12-04T13:18:11.769Z,10.30
2018-12-04T13:19:15.171Z,10.30
2018-12-04T13:20:18.606Z,10.20
2018-12-04T13:21:22.003Z,10.20
2018-12-04T13:22:25.386Z,10.20
2018-12-04T13:23:28.778Z,10.20
2018-12-04T13:24:32.289Z,10.20
2018-12-04T13:25:35.717Z,10.20
2018-12-04T13:26:39.101Z,10.20
2018-12-04T13:27:42.610Z,10.20
2018-12-04T13:28:45.978Z,10.20
2018-12-04T13:29:49.542Z,10.20
2018-12-04T13:30:53.079Z,10.20
2018-12-04T13:31:56.627Z,10.10
2018-12-04T13:33:00.022Z,10.10
2018-12-04T13:34:03.546Z,10.10
2018-12-04T13:35:06.957Z,10.10
2018-12-04T13:36:10.445Z,10.10
2018-12-04T13:37:13.946Z,10.10
2018-12-04T13:38:17.426Z,10.10
2018-12-04T13:39:20.831Z,10.20
2018-12-04T13:40:24.270Z,10.20
2018-12-04T13:41:27.802Z,10.10